Time;durP1;ratioP1;P1;durP2;ratioP2;P2;SDS_P1;SDS_P2;PMS_P1;PMS_P2;Temp;Humidity;BMP_temperature;BMP_pressure;BME280_temperature;BME280_humidity;BME280_pressure;Samples;Min_cycle;Max_cycle;Signal;HPM_P1;HPM_P2
2022/10/31 00:02:05;;;;;;;7.75;4.00;;;;;;;11.84;64.73;100707.38;5034159;28;20026;-69
2022/10/31 00:04:31;;;;;;;6.68;4.10;;;;;;;11.94;64.61;100717.25;5034150;28;20033;-72
2022/10/31 00:06:56;;;;;;;9.80;4.05;;;;;;;12.01;63.37;100716.63;5033663;28;20033;-73
2022/10/31 00:09:22;;;;;;;7.85;4.22;;;;;;;12.07;64.32;100709.09;5019022;28;20070;-68
2022/10/31 00:11:47;;;;;;;8.55;4.20;;;;;;;12.07;64.11;100716.84;5016270;28;20399;-71
2022/10/31 00:14:13;;;;;;;7.22;4.15;;;;;;;11.73;64.02;100681.13;5033742;28;20017;-68
2022/10/31 00:16:40;;;;;;;10.48;4.40;;;;;;;11.52;64.17;100663.16;5015919;28;20072;-70
2022/10/31 00:19:06;;;;;;;12.45;4.80;;;;;;;11.84;64.35;100715.13;5033635;28;20036;-70
2022/10/31 00:21:32;;;;;;;11.98;5.00;;;;;;;11.75;64.26;100707.91;5033472;28;20026;-69
2022/10/31 00:23:59;;;;;;;9.48;5.10;;;;;;;11.77;64.23;100717.50;5033333;28;20104;-71
2022/10/31 00:26:27;;;;;;;9.13;4.45;;;;;;;11.40;64.85;100704.94;5033527;28;20109;-71
2022/10/31 00:28:53;;;;;;;12.40;4.78;;;;;;;11.43;64.15;100718.84;5016002;28;20373;-70
2022/10/31 00:31:18;;;;;;;10.75;5.40;;;;;;;11.36;64.46;100719.44;5033602;28;20060;-68
2022/10/31 00:33:44;;;;;;;12.63;4.38;;;;;;;11.37;64.57;100723.78;5033348;28;20037;-71
2022/10/31 00:36:14;;;;;;;11.70;4.30;;;;;;;11.33;64.32;100724.50;5033348;28;20056;-69
2022/10/31 00:38:41;;;;;;;8.95;4.45;;;;;;;11.14;63.42;100710.88;5033445;28;20041;-71
2022/10/31 00:41:07;;;;;;;9.98;4.40;;;;;;;11.03;63.16;100678.59;5033399;28;20472;-70
2022/10/31 00:43:32;;;;;;;9.30;4.28;;;;;;;11.32;62.63;100733.09;5032863;28;20100;-71
2022/10/31 00:45:57;;;;;;;9.00;4.40;;;;;;;11.16;63.32;100682.50;5032615;28;20026;-71
2022/10/31 00:48:23;;;;;;;11.75;4.35;;;;;;;11.42;63.40;100724.84;5015265;28;20041;-69
2022/10/31 00:50:49;;;;;;;10.25;4.65;;;;;;;11.12;63.59;100684.09;5033113;28;20113;-70
2022/10/31 00:53:14;;;;;;;12.73;4.18;;;;;;;11.45;63.63;100742.16;5033404;28;20087;-69
2022/10/31 00:55:39;;;;;;;8.15;4.30;;;;;;;11.32;63.31;100736.53;5033382;28;20033;-71
2022/10/31 00:58:05;;;;;;;10.23;4.57;;;;;;;10.92;63.02;100664.38;5033182;28;20037;-73
2022/10/31 01:00:30;;;;;;;9.55;4.63;;;;;;;11.40;63.17;100736.84;5033216;28;20030;-68
2022/10/31 01:02:56;;;;;;;10.43;4.38;;;;;;;11.49;63.11;100734.59;5032329;28;20416;-68
2022/10/31 01:05:22;;;;;;;9.60;4.97;;;;;;;11.49;62.77;100731.16;5033163;28;20041;-67
2022/10/31 01:07:47;;;;;;;9.80;4.55;;;;;;;11.38;62.91;100733.31;5033007;28;20037;-70
2022/10/31 01:10:13;;;;;;;9.73;4.97;;;;;;;10.82;63.77;100653.69;5033256;28;20030;-75
2022/10/31 01:12:40;;;;;;;8.75;4.45;;;;;;;10.93;62.76;100687.69;5033069;28;20030;-72
2022/10/31 01:15:07;;;;;;;11.20;5.22;;;;;;;10.97;65.10;100714.50;5033003;28;20064;-68
2022/10/31 01:17:33;;;;;;;11.48;5.47;;;;;;;11.03;66.48;100738.00;5032895;28;20552;-71
2022/10/31 01:19:58;;;;;;;10.70;5.50;;;;;;;10.87;67.95;100733.94;5015035;28;20026;-70
2022/10/31 01:22:23;;;;;;;9.75;5.40;;;;;;;10.87;67.88;100736.50;5033120;28;20017;-68
2022/10/31 01:24:49;;;;;;;11.70;5.47;;;;;;;10.93;68.67;100736.75;5033009;28;20036;-69
2022/10/31 01:27:14;;;;;;;11.05;5.63;;;;;;;10.54;68.79;100693.00;5031573;28;20029;-71
2022/10/31 01:29:40;;;;;;;13.38;6.13;;;;;;;10.78;68.65;100733.53;5032714;28;20372;-70
2022/10/31 01:32:05;;;;;;;12.20;6.13;;;;;;;10.36;68.99;100649.28;5032240;28;20046;-69
2022/10/31 01:34:31;;;;;;;10.90;5.90;;;;;;;10.93;68.62;100735.84;5014902;28;20037;-70
2022/10/31 01:36:56;;;;;;;9.63;5.25;;;;;;;10.98;68.59;100734.38;5032355;28;20041;-67
2022/10/31 01:39:21;;;;;;;10.82;5.40;;;;;;;11.11;68.97;100746.06;5032619;28;20025;-70
2022/10/31 01:41:52;;;;;;;10.05;4.45;;;;;;;11.14;67.98;100744.47;5032953;28;20053;-68
2022/10/31 01:44:18;;;;;;;11.73;5.70;;;;;;;11.08;66.04;100743.34;5032557;28;20037;-69
2022/10/31 01:46:56;;;;;;;11.57;5.90;;;;;;;10.92;66.12;100747.91;5032342;28;20770;-68
2022/10/31 01:49:28;;;;;;;11.88;4.90;;;;;;;10.73;66.59;100732.47;5032156;28;20468;-70
2022/10/31 01:52:22;;;;;;;13.98;5.78;;;;;;;10.89;67.00;100733.97;5032198;28;20082;-70
2022/10/31 01:55:03;;;;;;;14.50;6.07;;;;;;;11.04;66.83;100739.78;4977244;28;20486;-72
2022/10/31 01:57:30;;;;;;;11.88;5.30;;;;;;;10.97;66.89;100724.84;5009717;28;20050;-73
2022/10/31 01:59:59;;;;;;;11.65;5.35;;;;;;;10.98;67.22;100742.13;5009937;28;20410;-67
2022/10/31 02:02:25;;;;;;;10.90;4.93;;;;;;;11.04;67.03;100737.19;5010043;28;20040;-69
2022/10/31 02:04:52;;;;;;;8.57;5.15;;;;;;;11.14;66.75;100744.47;5009857;28;20030;-71
2022/10/31 02:07:26;;;;;;;14.52;5.32;;;;;;;10.79;66.62;100666.47;5009803;28;20058;-67
2022/10/31 02:09:53;;;;;;;10.23;5.05;;;;;;;11.24;66.57;100737.97;5009732;28;20026;-73
2022/10/31 02:12:19;;;;;;;9.88;4.68;;;;;;;11.25;68.44;100737.16;5009041;28;20107;-71
2022/10/31 02:14:46;;;;;;;8.48;4.63;;;;;;;11.35;67.73;100755.56;5008855;28;20022;-68
2022/10/31 02:17:12;;;;;;;10.65;4.78;;;;;;;11.30;67.90;100753.72;5009794;28;20548;-67
2022/10/31 02:19:52;;;;;;;8.95;4.85;;;;;;;10.95;68.57;100760.06;5009578;28;20072;-72
2022/10/31 02:22:39;;;;;;;11.73;5.65;;;;;;;10.99;68.51;100743.84;4993099;28;20026;-71
2022/10/31 02:25:28;;;;;;;7.93;5.03;;;;;;;10.98;68.29;100734.38;5009481;28;20038;-69
2022/10/31 02:28:15;;;;;;;8.63;4.85;;;;;;;11.23;67.46;100749.13;5009502;28;20026;-71
2022/10/31 02:30:50;;;;;;;9.15;4.65;;;;;;;11.30;67.67;100752.81;5010908;28;20069;-72
2022/10/31 02:33:30;;;;;;;7.07;4.97;;;;;;;11.30;67.46;100756.28;5013695;28;20093;-68
2022/10/31 02:36:10;;;;;;;9.65;4.75;;;;;;;11.32;67.97;100754.63;5013924;28;20037;-69
2022/10/31 02:39:37;;;;;;;12.25;4.30;;;;;;;11.31;68.66;100746.81;5013637;28;20053;-68
2022/10/31 02:42:25;;;;;;;9.52;4.88;;;;;;;11.35;69.17;100756.44;4875237;29;20048;-68
2022/10/31 02:44:57;;;;;;;8.60;4.93;;;;;;;11.30;69.54;100747.63;4820034;29;20054;-70
2022/10/31 02:47:34;;;;;;;9.00;4.82;;;;;;;11.26;69.77;100756.09;4819989;29;20471;-69
2022/10/31 02:50:19;;;;;;;9.07;4.60;;;;;;;11.21;69.79;100766.25;4819949;29;20110;-69
2022/10/31 02:52:44;;;;;;;9.55;5.22;;;;;;;11.17;70.09;100748.88;4819947;29;20115;-71
2022/10/31 02:55:22;;;;;;;7.68;4.68;;;;;;;11.17;69.96;100762.66;4820033;29;20043;-68
2022/10/31 02:57:49;;;;;;;6.93;4.63;;;;;;;11.04;70.18;100756.97;4819916;29;20084;-69
2022/10/31 03:00:15;;;;;;;8.93;5.20;;;;;;;10.93;70.87;100754.84;4819900;29;20099;-70
2022/10/31 03:02:46;;;;;;;13.60;5.13;;;;;;;10.99;70.74;100759.34;4819716;29;20034;-68
2022/10/31 03:05:36;;;;;;;7.38;4.88;;;;;;;10.91;71.00;100761.63;4834983;29;20054;-68
2022/10/31 03:08:12;;;;;;;9.77;4.70;;;;;;;10.87;71.10;100769.22;4819803;29;20038;-69
2022/10/31 03:10:37;;;;;;;8.00;4.95;;;;;;;10.85;71.33;100771.72;4819397;29;20040;-69
2022/10/31 03:13:20;;;;;;;12.20;5.07;;;;;;;10.87;71.16;100770.09;4819985;29;20125;-68
2022/10/31 03:15:50;;;;;;;6.95;4.63;;;;;;;10.91;70.64;100766.81;4850232;29;20048;-69
2022/10/31 03:18:16;;;;;;;7.93;4.57;;;;;;;11.03;70.85;100768.09;4893745;29;20039;-72
2022/10/31 03:21:09;;;;;;;7.65;4.70;;;;;;;11.02;71.12;100771.53;4950257;29;20497;-68
2022/10/31 03:23:37;;;;;;;12.85;5.10;;;;;;;10.87;70.94;100764.06;5030624;28;20022;-67
2022/10/31 03:26:06;;;;;;;6.28;4.55;;;;;;;10.74;70.86;100727.41;5030417;28;20091;-68
2022/10/31 03:28:42;;;;;;;7.70;4.40;;;;;;;11.17;70.93;100785.06;5030614;28;20111;-69
2022/10/31 03:31:11;;;;;;;11.68;5.18;;;;;;;11.29;70.52;100774.31;5012755;28;20108;-69
2022/10/31 03:33:40;;;;;;;7.28;4.25;;;;;;;11.30;71.15;100786.41;5030754;28;20132;-70
2022/10/31 03:36:08;;;;;;;12.45;4.90;;;;;;;11.20;70.68;100767.06;5030578;28;20108;-70
2022/10/31 03:38:35;;;;;;;8.23;5.25;;;;;;;11.35;70.77;100782.28;5030378;28;20037;-67
2022/10/31 03:41:05;;;;;;;8.23;5.00;;;;;;;11.36;70.80;100776.31;5030552;28;20411;-69
2022/10/31 03:43:35;;;;;;;8.90;5.05;;;;;;;11.10;71.49;100791.69;5030466;28;20041;-70
2022/10/31 03:46:03;;;;;;;8.48;5.95;;;;;;;10.89;72.39;100788.22;5030520;28;20034;-71
2022/10/31 03:48:28;;;;;;;9.88;5.70;;;;;;;10.94;72.37;100782.44;5029271;28;20034;-72
2022/10/31 03:50:57;;;;;;;12.43;4.93;;;;;;;11.02;72.09;100782.75;5030193;28;20480;-67
2022/10/31 03:53:48;;;;;;;12.23;4.93;;;;;;;11.13;71.22;100785.75;5030368;28;20033;-71
2022/10/31 03:56:57;;;;;;;7.07;4.63;;;;;;;10.97;71.96;100786.84;4930517;29;20039;-68
2022/10/31 03:59:22;;;;;;;8.35;5.07;;;;;;;10.93;72.89;100788.41;4874215;29;20124;-68
2022/10/31 04:01:53;;;;;;;11.48;5.82;;;;;;;10.74;72.70;100747.16;4873295;29;20496;-72
2022/10/31 04:04:19;;;;;;;7.70;5.05;;;;;;;10.98;73.30;100794.66;4874184;29;20037;-72
2022/10/31 04:06:47;;;;;;;7.75;5.20;;;;;;;10.84;73.27;100790.63;4873580;29;20053;-68
2022/10/31 04:09:13;;;;;;;7.47;4.80;;;;;;;10.86;73.02;100791.56;4873782;29;20076;-69
2022/10/31 04:11:47;;;;;;;8.20;5.15;;;;;;;10.95;72.83;100791.06;4873731;29;20069;-68
2022/10/31 04:14:13;;;;;;;8.43;4.85;;;;;;;11.05;72.69;100798.34;4872958;29;20057;-71
2022/10/31 04:16:43;;;;;;;8.77;4.35;;;;;;;11.12;71.81;100797.78;4874164;29;20033;-67
2022/10/31 04:19:10;;;;;;;9.35;5.20;;;;;;;11.14;72.85;100795.25;4873430;29;20097;-70
2022/10/31 04:21:35;;;;;;;8.25;4.95;;;;;;;11.14;72.37;100800.41;4872688;29;20044;-70
2022/10/31 04:24:01;;;;;;;10.43;5.20;;;;;;;11.11;72.26;100802.91;4871779;29;20037;-68
2022/10/31 04:26:26;;;;;;;11.02;4.97;;;;;;;11.12;72.09;100807.25;4873848;29;20538;-71
2022/10/31 04:28:51;;;;;;;11.02;5.30;;;;;;;11.09;72.03;100796.78;4873261;29;20496;-67
2022/10/31 04:31:17;;;;;;;11.50;5.00;;;;;;;11.02;72.32;100802.53;4873738;29;20053;-70
2022/10/31 04:33:42;;;;;;;10.95;5.80;;;;;;;11.08;72.08;100806.25;4931211;28;20090;-67
2022/10/31 04:36:08;;;;;;;7.95;4.97;;;;;;;11.15;70.54;100807.34;5010972;28;20076;-68
2022/10/31 04:38:33;;;;;;;15.45;6.20;;;;;;;11.17;70.13;100810.91;5022195;28;20033;-68
2022/10/31 04:40:59;;;;;;;9.63;5.15;;;;;;;11.17;70.06;100804.00;5028469;28;20065;-69
2022/10/31 04:43:24;;;;;;;8.82;4.95;;;;;;;11.19;70.32;100813.53;5032816;28;20569;-71
2022/10/31 04:45:49;;;;;;;11.25;5.30;;;;;;;11.13;70.30;100803.84;5033495;28;20033;-68
2022/10/31 04:48:15;;;;;;;12.98;6.00;;;;;;;11.19;71.07;100810.94;5033345;28;20050;-70
2022/10/31 04:50:41;;;;;;;13.30;5.53;;;;;;;11.20;71.08;100821.34;5033377;28;20026;-70
2022/10/31 04:53:06;;;;;;;10.77;5.60;;;;;;;11.10;71.92;100820.13;5033626;28;20498;-68
2022/10/31 04:55:31;;;;;;;10.95;5.40;;;;;;;11.09;71.33;100814.88;5033350;28;20030;-70
2022/10/31 04:57:57;;;;;;;19.25;5.47;;;;;;;11.12;71.38;100822.75;5031775;28;20075;-70
2022/10/31 05:00:23;;;;;;;9.05;4.90;;;;;;;10.91;71.16;100776.28;5033100;28;20403;-70
2022/10/31 05:02:51;;;;;;;9.13;4.40;;;;;;;11.16;71.25;100824.63;5030959;28;20470;-68
2022/10/31 05:05:19;;;;;;;11.73;4.85;;;;;;;11.27;71.13;100835.41;5033014;28;20037;-73
2022/10/31 05:07:46;;;;;;;9.15;5.00;;;;;;;11.06;72.13;100817.34;5032919;28;20083;-71
2022/10/31 05:10:14;;;;;;;19.15;5.45;;;;;;;11.12;72.03;100844.28;5024013;28;20075;-68
2022/10/31 05:12:50;;;;;;;10.48;5.32;;;;;;;10.95;73.02;100853.97;5032458;28;20036;-68
2022/10/31 05:15:17;;;;;;;10.07;5.97;;;;;;;10.91;73.80;100862.38;5029755;28;20051;-69
2022/10/31 05:17:43;;;;;;;13.30;6.22;;;;;;;10.86;73.75;100857.84;5032569;28;20083;-72
2022/10/31 05:20:09;;;;;;;9.30;5.55;;;;;;;10.96;73.64;100872.91;5032885;28;20064;-68
2022/10/31 05:22:35;;;;;;;11.55;6.60;;;;;;;11.06;73.54;100869.00;5032481;28;20026;-68
2022/10/31 05:25:01;;;;;;;9.57;6.30;;;;;;;11.05;73.18;100867.25;5033216;28;20028;-68
2022/10/31 05:27:26;;;;;;;13.63;5.55;;;;;;;11.19;72.67;100883.31;5032970;28;20025;-68
2022/10/31 05:29:51;;;;;;;12.65;5.28;;;;;;;11.19;72.58;100889.38;5032798;28;20033;-73
2022/10/31 05:32:20;;;;;;;10.13;5.28;;;;;;;11.15;72.87;100890.94;5032915;28;20057;-72
2022/10/31 05:34:45;;;;;;;20.45;5.60;;;;;;;10.92;73.05;100845.19;5031610;28;20029;-70
2022/10/31 05:37:10;;;;;;;19.83;5.63;;;;;;;11.31;72.94;100894.16;5032404;28;20507;-68
2022/10/31 05:39:36;;;;;;;12.35;5.97;;;;;;;11.30;72.91;100897.56;5031440;28;20033;-69
2022/10/31 05:42:01;;;;;;;13.10;6.63;;;;;;;11.09;72.60;100849.34;5032086;28;20053;-68
2022/10/31 05:44:27;;;;;;;12.50;6.10;;;;;;;11.30;72.97;100890.69;5031935;28;20021;-67
2022/10/31 05:46:52;;;;;;;8.55;5.43;;;;;;;11.22;72.81;100902.41;5031865;28;20025;-68
2022/10/31 05:49:17;;;;;;;9.63;5.45;;;;;;;11.29;72.78;100908.69;5031317;28;20786;-70
2022/10/31 05:51:43;;;;;;;9.93;5.50;;;;;;;11.40;73.47;100914.31;5003782;28;20124;-71
2022/10/31 05:54:08;;;;;;;9.85;4.97;;;;;;;11.44;72.73;100919.69;5022537;28;20033;-69
2022/10/31 05:56:34;;;;;;;9.02;4.50;;;;;;;11.51;73.58;100917.34;5026693;28;20461;-71
2022/10/31 05:58:59;;;;;;;10.55;5.25;;;;;;;11.64;73.14;100915.31;5025613;28;20030;-68
2022/10/31 06:01:25;;;;;;;11.70;5.28;;;;;;;11.75;71.25;100918.34;5022115;28;20031;-70
2022/10/31 06:03:50;;;;;;;13.20;5.40;;;;;;;11.85;71.74;100919.59;5004887;28;20076;-68
2022/10/31 06:06:15;;;;;;;8.23;4.70;;;;;;;11.93;70.61;100922.47;5020825;28;20025;-72
2022/10/31 06:08:41;;;;;;;9.65;5.15;;;;;;;12.00;70.60;100929.69;5022629;28;20024;-68
2022/10/31 06:11:06;;;;;;;15.25;5.38;;;;;;;12.05;71.86;100922.06;5004602;28;20034;-69
2022/10/31 06:13:32;;;;;;;13.45;5.53;;;;;;;11.89;71.63;100889.53;5020753;28;20419;-68
2022/10/31 06:15:58;;;;;;;11.82;5.07;;;;;;;12.11;72.78;100914.53;5022846;28;20108;-69
2022/10/31 06:18:23;;;;;;;16.45;5.07;;;;;;;12.20;72.43;100924.34;5023181;28;20034;-69
2022/10/31 06:20:48;;;;;;;22.75;6.38;;;;;;;12.22;73.08;100930.47;5029963;28;20032;-70
2022/10/31 06:23:14;;;;;;;13.55;5.07;;;;;;;12.24;73.56;100929.72;5021500;28;20025;-70
2022/10/31 06:25:39;;;;;;;16.38;5.63;;;;;;;12.31;72.63;100938.56;5021041;28;20022;-70
2022/10/31 06:28:05;;;;;;;12.50;5.55;;;;;;;12.37;71.17;100943.97;5021155;28;20025;-74
2022/10/31 06:30:31;;;;;;;12.00;5.30;;;;;;;12.43;71.10;100941.63;5020883;28;20034;-70
2022/10/31 06:33:03;;;;;;;12.45;5.78;;;;;;;12.52;69.93;100946.25;5021633;28;20049;-71
2022/10/31 06:35:28;;;;;;;14.27;6.05;;;;;;;12.59;69.18;100950.84;5022661;28;20083;-69
2022/10/31 06:37:54;;;;;;;15.85;5.35;;;;;;;12.56;67.86;100939.47;5021349;28;20030;-67
2022/10/31 06:40:20;;;;;;;8.52;5.75;;;;;;;12.50;68.61;100924.63;5020915;28;20403;-71
2022/10/31 06:42:46;;;;;;;9.57;5.22;;;;;;;12.49;68.24;100930.63;5022157;28;20116;-69
2022/10/31 06:45:12;;;;;;;8.57;5.25;;;;;;;12.76;69.63;100937.59;5021099;28;20591;-70
2022/10/31 06:47:38;;;;;;;13.02;5.80;;;;;;;12.77;68.54;100948.03;5020987;28;20028;-68
2022/10/31 06:50:03;;;;;;;10.13;5.78;;;;;;;12.93;68.01;100941.69;5022148;28;20108;-70
2022/10/31 06:52:29;;;;;;;17.88;6.93;;;;;;;13.10;66.96;100946.56;5020386;28;20072;-70
2022/10/31 06:54:54;;;;;;;11.48;6.13;;;;;;;13.17;66.77;100950.25;5015824;28;20032;-68
2022/10/31 06:57:20;;;;;;;14.05;6.57;;;;;;;13.17;66.43;100907.06;5020445;28;20494;-72
2022/10/31 06:59:45;;;;;;;12.82;6.70;;;;;;;13.44;65.27;100937.34;5020935;28;20017;-70
2022/10/31 07:02:11;;;;;;;12.13;7.20;;;;;;;13.71;64.97;100947.75;5005395;28;20034;-70
2022/10/31 07:04:36;;;;;;;13.88;7.28;;;;;;;13.87;64.31;100943.06;5027239;28;20025;-69
2022/10/31 07:07:02;;;;;;;14.52;8.30;;;;;;;14.02;62.65;100943.50;5020086;28;20044;-68
2022/10/31 07:09:27;;;;;;;14.63;8.23;;;;;;;13.97;61.12;100947.69;5021055;28;20025;-68
2022/10/31 07:11:53;;;;;;;14.07;7.90;;;;;;;13.93;60.74;100934.56;4986399;28;20069;-70
2022/10/31 07:14:19;;;;;;;15.48;7.25;;;;;;;14.20;60.33;100932.78;5019441;28;20472;-69
2022/10/31 07:16:49;;;;;;;14.30;6.68;;;;;;;14.42;59.33;100938.63;5021187;28;20075;-70
2022/10/31 07:19:14;;;;;;;;;;;;;;;14.56;59.50;100942.47;5021931;28;20073;-70
2022/10/31 07:21:39;;;;;;;14.77;6.88;;;;;;;14.75;59.63;100939.56;5019335;28;19949;-73
2022/10/31 07:24:05;;;;;;;13.02;6.38;;;;;;;14.94;58.93;100943.53;5002518;28;20041;-69
2022/10/31 07:26:30;;;;;;;12.45;6.88;;;;;;;14.93;58.70;100939.16;5020704;28;20053;-70
2022/10/31 07:28:56;;;;;;;15.02;6.57;;;;;;;15.00;58.67;100939.38;5019355;28;20030;-70
2022/10/31 07:31:21;;;;;;;14.20;6.78;;;;;;;15.18;58.19;100945.91;5021993;28;20037;-70
2022/10/31 07:33:46;;;;;;;10.30;6.32;;;;;;;15.33;58.14;100941.06;5024557;28;20026;-68
2022/10/31 07:36:12;;;;;;;9.82;6.15;;;;;;;15.37;57.95;100940.31;5020664;28;20022;-71
2022/10/31 07:38:37;;;;;;;11.90;6.20;;;;;;;15.60;56.28;100952.13;5020852;28;20412;-68
2022/10/31 07:41:03;;;;;;;16.25;7.13;;;;;;;15.68;55.68;100954.06;5019564;28;20105;-68
2022/10/31 07:43:28;;;;;;;17.33;8.85;;;;;;;15.87;54.33;100969.28;5023061;28;20498;-68
2022/10/31 07:45:54;;;;;;;15.20;8.60;;;;;;;15.89;54.56;100945.03;5029519;28;20025;-70
2022/10/31 07:48:20;;;;;;;20.02;8.75;;;;;;;15.88;54.81;100908.56;5027175;28;20033;-69
2022/10/31 07:50:46;;;;;;;18.35;8.05;;;;;;;16.15;54.47;100945.63;5018924;28;20538;-74
2022/10/31 07:53:13;;;;;;;16.05;8.63;;;;;;;16.30;54.81;100945.06;5021099;28;20025;-74
2022/10/31 07:55:39;;;;;;;20.38;10.27;;;;;;;16.38;53.99;100942.59;5018298;28;20040;-69
2022/10/31 07:58:07;;;;;;;36.30;9.98;;;;;;;16.50;53.52;100950.69;5012521;28;20026;-70
2022/10/31 08:00:34;;;;;;;24.35;10.18;;;;;;;16.59;53.81;100929.13;5018544;28;20475;-68
2022/10/31 08:03:14;;;;;;;16.23;8.55;;;;;;;16.59;53.81;100936.09;5020457;28;20042;-68
2022/10/31 08:05:40;;;;;;;14.43;7.28;;;;;;;16.72;53.66;100935.44;5021092;28;20029;-68
2022/10/31 08:08:07;;;;;;;13.57;6.80;;;;;;;16.86;53.98;100934.84;5020953;28;20029;-69
2022/10/31 08:10:34;;;;;;;11.38;6.57;;;;;;;16.86;53.86;100895.72;5019535;28;20022;-69
2022/10/31 08:13:08;;;;;;;11.90;6.03;;;;;;;16.93;53.12;100890.66;5027590;28;20072;-68
2022/10/31 08:15:36;;;;;;;9.75;5.65;;;;;;;17.35;53.31;100927.91;5026434;28;20626;-71
2022/10/31 08:18:02;;;;;;;13.05;5.72;;;;;;;17.50;52.80;100931.63;5022935;28;20044;-69
2022/10/31 08:20:28;;;;;;;11.40;5.38;;;;;;;17.44;52.69;100895.84;5032102;28;20426;-71
2022/10/31 08:22:55;;;;;;;9.13;5.45;;;;;;;17.74;52.48;100928.50;5028047;28;20115;-69
2022/10/31 08:25:21;;;;;;;11.68;5.22;;;;;;;17.74;52.88;100895.44;5030669;28;20022;-67
2022/10/31 08:27:53;;;;;;;13.00;5.97;;;;;;;17.64;52.33;100862.22;5034178;28;20044;-68
2022/10/31 08:30:20;;;;;;;12.32;5.97;;;;;;;18.19;52.79;100921.31;5023385;28;20037;-69
2022/10/31 08:32:46;;;;;;;11.57;5.43;;;;;;;18.22;51.49;100922.25;5040286;28;20057;-71
2022/10/31 08:35:12;;;;;;;12.70;5.78;;;;;;;18.28;51.66;100921.47;5032922;28;20030;-70
2022/10/31 08:37:37;;;;;;;11.45;5.45;;;;;;;18.36;52.28;100916.31;5048450;28;20685;-68
2022/10/31 08:40:04;;;;;;;9.60;4.90;;;;;;;18.57;53.00;100924.41;5034092;28;20099;-68
2022/10/31 08:42:29;;;;;;;12.73;6.38;;;;;;;18.72;51.66;100928.91;5026455;28;20091;-68
2022/10/31 08:44:55;;;;;;;17.27;9.75;;;;;;;18.78;51.64;100922.88;5033079;28;20495;-73
2022/10/31 08:47:20;;;;;;;38.67;23.02;;;;;;;18.90;51.80;100923.03;5033770;28;20438;-73
2022/10/31 08:49:46;;;;;;;11.20;6.15;;;;;;;18.84;50.96;100902.03;5033887;28;20072;-71
2022/10/31 08:52:11;;;;;;;12.15;5.80;;;;;;;19.14;52.51;100932.00;5033358;28;20108;-71
2022/10/31 08:54:37;;;;;;;12.05;5.43;;;;;;;19.28;50.63;100924.25;5033520;28;20026;-72
2022/10/31 08:57:02;;;;;;;9.93;4.78;;;;;;;19.34;51.99;100926.91;5020689;28;20567;-72
2022/10/31 08:59:27;;;;;;;9.60;4.88;;;;;;;19.49;51.69;100931.41;5020650;28;20033;-72
2022/10/31 09:01:53;;;;;;;16.63;5.00;;;;;;;19.44;51.16;100901.69;5016153;28;20029;-70
2022/10/31 09:04:18;;;;;;;15.40;5.40;;;;;;;19.76;50.91;100931.59;5025645;28;20483;-71
2022/10/31 09:06:44;;;;;;;25.05;6.35;;;;;;;19.98;50.41;100935.25;5034337;28;20116;-70
2022/10/31 09:09:09;;;;;;;27.67;6.03;;;;;;;19.92;50.13;100893.28;5031965;28;20509;-74
2022/10/31 09:11:34;;;;;;;12.10;5.68;;;;;;;20.29;49.91;100927.53;5042191;28;20569;-72
2022/10/31 09:14:00;;;;;;;25.30;5.90;;;;;;;20.42;49.67;100923.22;5030750;28;20026;-74
2022/10/31 12:41:55;;;;;;;5.53;2.83;;;;;;;24.02;40.61;100789.19;4991153;28;20073;-69
2022/10/31 12:44:42;;;;;;;11.95;3.30;;;;;;;24.00;42.52;100799.78;4989332;28;20140;-69
2022/10/31 12:47:29;;;;;;;5.28;2.67;;;;;;;23.95;42.12;100790.16;4988252;28;20066;-72
2022/10/31 12:50:11;;;;;;;6.45;2.70;;;;;;;24.00;40.79;100786.59;4988726;28;20030;-73
2022/10/31 12:52:39;;;;;;;6.78;3.30;;;;;;;24.00;41.44;100793.59;4987145;28;20026;-74
2022/10/31 12:55:13;;;;;;;5.25;2.72;;;;;;;23.96;41.24;100791.91;4989667;28;20026;-73
2022/10/31 12:57:44;;;;;;;6.90;2.80;;;;;;;23.98;41.41;100792.78;4987513;28;20030;-73
2022/10/31 13:00:15;;;;;;;6.53;2.67;;;;;;;23.98;40.69;100790.13;4993010;28;20031;-73
2022/10/31 13:03:07;;;;;;;5.63;3.10;;;;;;;23.93;41.90;100797.25;4991161;28;20027;-74
2022/10/31 13:05:41;;;;;;;6.60;2.92;;;;;;;23.74;41.35;100773.72;4992281;28;20581;-71
2022/10/31 13:08:11;;;;;;;6.68;3.05;;;;;;;23.77;42.10;100770.16;4992859;28;20743;-73
2022/10/31 13:10:43;;;;;;;6.03;3.10;;;;;;;23.87;42.52;100790.25;4990047;28;20117;-74
2022/10/31 13:13:21;;;;;;;6.20;2.90;;;;;;;23.83;42.06;100793.81;4992450;28;20037;-72
2022/10/31 13:16:00;;;;;;;8.23;2.92;;;;;;;23.77;41.99;100791.25;5007795;28;20030;-73
2022/10/31 13:18:35;;;;;;;4.57;2.70;;;;;;;23.69;42.79;100768.50;4992536;28;20033;-73
2022/10/31 13:21:07;;;;;;;4.80;2.80;;;;;;;23.70;41.18;100759.69;5007390;28;20413;-73
2022/10/31 13:23:34;;;;;;;6.15;2.75;;;;;;;23.77;41.59;100764.91;4993369;28;20247;-73
2022/10/31 13:26:08;;;;;;;5.60;2.70;;;;;;;23.89;41.50;100793.75;4992476;28;20115;-72
2022/10/31 13:28:52;;;;;;;3.05;2.08;;;;;;;23.69;40.84;100757.06;4992931;28;20030;-73
2022/10/31 13:31:17;;;;;;;6.93;2.30;;;;;;;23.88;41.50;100794.63;4992825;28;20534;-72
2022/10/31 13:33:49;;;;;;;5.40;2.42;;;;;;;23.79;42.66;100789.47;4992872;28;20038;-72
2022/10/31 13:36:34;;;;;;;4.63;2.55;;;;;;;23.80;41.88;100793.84;4992908;28;20034;-72
2022/10/31 13:38:59;;;;;;;7.45;2.30;;;;;;;23.77;41.27;100789.47;4992955;28;20069;-73
2022/10/31 13:42:01;;;;;;;9.13;2.72;;;;;;;23.71;42.52;100789.56;4992584;28;20465;-72
2022/10/31 13:44:28;;;;;;;6.97;2.85;;;;;;;23.46;42.13;100750.31;5032079;28;20037;-72
2022/10/31 13:46:57;;;;;;;5.28;2.45;;;;;;;23.59;41.77;100786.19;5031862;28;20079;-71
2022/10/31 13:49:41;;;;;;;5.18;2.70;;;;;;;23.47;41.72;100801.28;5032219;28;20044;-71
2022/10/31 13:52:13;;;;;;;3.97;2.30;;;;;;;23.03;41.83;100738.47;5013894;28;20033;-72
2022/10/31 13:54:47;;;;;;;4.25;2.08;;;;;;;23.35;41.71;100789.09;5032030;28;20030;-72
2022/10/31 13:57:38;;;;;;;6.60;2.63;;;;;;;23.34;42.19;100792.63;5031983;28;20056;-72
2022/10/31 14:00:19;;;;;;;8.30;2.58;;;;;;;23.33;42.18;100799.66;5009413;28;20598;-72
2022/10/31 14:02:47;;;;;;;7.80;2.50;;;;;;;23.26;41.97;100782.16;4992805;28;20148;-72
2022/10/31 14:05:34;;;;;;;6.85;2.47;;;;;;;23.32;42.42;100795.28;4993025;28;20034;-73
2022/10/31 14:08:03;;;;;;;6.15;2.50;;;;;;;23.09;42.19;100767.38;5009607;28;20045;-72
2022/10/31 14:10:36;;;;;;;6.45;2.28;;;;;;;23.24;42.46;100794.47;5009258;28;20034;-72
2022/10/31 14:13:25;;;;;;;6.38;2.30;;;;;;;23.25;42.68;100799.75;5009102;28;20097;-72
2022/10/31 14:16:02;;;;;;;5.50;2.30;;;;;;;23.25;42.14;100799.75;5009284;28;20109;-72
2022/10/31 14:18:33;;;;;;;5.40;2.20;;;;;;;23.18;43.63;100800.69;5008866;28;20436;-72
2022/10/31 14:20:59;;;;;;;5.65;2.05;;;;;;;22.98;44.05;100774.53;5009148;28;20034;-72
2022/10/31 14:23:30;;;;;;;6.45;2.47;;;;;;;23.22;43.12;100807.66;4992511;28;20038;-70
2022/10/31 14:26:14;;;;;;;12.90;2.60;;;;;;;23.21;42.82;100803.28;5009113;28;20543;-72
2022/10/31 14:28:39;;;;;;;7.63;2.13;;;;;;;23.24;42.92;100805.91;5009190;28;20094;-72
2022/10/31 14:31:36;;;;;;;4.25;2.17;;;;;;;23.18;42.60;100807.69;5008973;28;20144;-70
2022/10/31 14:34:28;;;;;;;4.88;2.33;;;;;;;23.10;42.54;100811.28;5009042;28;20054;-69
2022/10/31 14:37:31;;;;;;;6.22;2.10;;;;;;;23.08;43.33;100814.81;5017849;28;20053;-68
2022/10/31 14:40:02;;;;;;;6.28;2.40;;;;;;;22.98;44.17;100821.03;5030838;28;20037;-68
2022/10/31 14:42:27;;;;;;;5.55;2.28;;;;;;;22.80;43.14;100786.06;5030869;28;20058;-68
2022/10/31 14:45:15;;;;;;;3.65;2.20;;;;;;;22.91;43.72;100818.44;5030850;28;20036;-72
2022/10/31 14:47:58;;;;;;;6.45;2.45;;;;;;;22.78;44.03;100816.81;5031135;28;20025;-71
2022/10/31 14:50:39;;;;;;;8.05;2.28;;;;;;;22.64;44.30;100811.63;5030582;28;20032;-72
2022/10/31 14:53:11;;;;;;;4.22;2.10;;;;;;;22.54;44.72;100820.50;5030902;28;20086;-71
2022/10/31 14:55:45;;;;;;;9.15;2.30;;;;;;;22.29;44.79;100791.69;5030925;28;20065;-71
2022/10/31 14:58:19;;;;;;;5.90;2.42;;;;;;;22.25;45.04;100797.84;5012669;28;20494;-72
2022/10/31 15:00:45;;;;;;;9.75;2.83;;;;;;;22.33;44.58;100821.47;5030359;28;20041;-71